Main page
METAR-TAF:

METAR-TAF

Airports :

Kingston, Jamaica

Norman Manley International Airport

latitude: 17-56N, longitude: 076-47W, elevation: 3 m

Current weather observation

The report was made 41 minutes ago, at 20:00 UTC
Wind 18 kt from the Southeast
Temperature 31°C
Humidity 66%
Pressure 1012 hPa
Visibility 10 km or more
Few clouds at a height of 2000 ft
Scattered clouds at a height of 3000 ft

METAR: MKJP 232000Z 14018KT 9999 FEW020 SCT030 31/24 Q1012

Time: 15:41 (20:41 UTC)

Forecast

The report was made 3 hours and 26 minutes ago, at 17:15 UTC
Forecast valid from 23 at 18 UTC to 24 at 18 UTC
Wind 20 kt from the East/Southeast
Visibility 10 km or more
Few clouds at a height of 2200 ft
Scattered clouds at a height of 3500 ft
Becoming
from 24 at 02 UTC to 24 at 04 UTC
Wind 5 kt from the North
Becoming
from 24 at 14 UTC to 24 at 16 UTC
Wind 20 kt from the Southeast

TAF: MKJP 231715Z 2318/2418 12020KT 9999 FEW022 SCT035 BECMG 2402/2404 35005KT BECMG 2414/2416 13020KT

Weather observations and forecasts of more than 4000 airports (METAR and TAF reports).

The available stations are represented by yellow and red dots on the map.

Hover mouse over dot to see the name of the station.

Then click to see weather observations and forecasts.

To change the map : click on the green buttons with a black cross to zoom in, on the green button with a dash to zoom out, or on the green arrows for adjacent maps.


METAR-TAF: